sensor_id;sensor_type;location;lat;lon;timestamp;pressure;altitude;pressure_sealevel;temperature;humidity
40994;BME280;26722;43.212;27.932;2023-05-12T00:00:53;55124.53;;;-146.72;79.95
40994;BME280;26722;43.212;27.932;2023-05-12T00:03:19;55132.97;;;-146.72;79.95
40994;BME280;26722;43.212;27.932;2023-05-12T00:05:44;55126.66;;;-146.72;79.88
40994;BME280;26722;43.212;27.932;2023-05-12T00:08:09;55111.88;;;-146.72;80.17
40994;BME280;26722;43.212;27.932;2023-05-12T00:10:35;55120.31;;;-146.72;79.96
40994;BME280;26722;43.212;27.932;2023-05-12T00:13:01;55109.75;;;-146.72;79.91
40994;BME280;26722;43.212;27.932;2023-05-12T00:15:26;55141.44;;;-146.72;79.95
40994;BME280;26722;43.212;27.932;2023-05-12T00:17:51;55111.88;;;-146.72;79.76
40994;BME280;26722;43.212;27.932;2023-05-12T00:20:17;55124.53;;;-146.72;79.87
40994;BME280;26722;43.212;27.932;2023-05-12T00:22:42;55113.97;;;-146.72;79.96
40994;BME280;26722;43.212;27.932;2023-05-12T00:25:07;55116.09;;;-146.72;79.96
40994;BME280;26722;43.212;27.932;2023-05-12T00:27:33;55118.19;;;-146.72;79.95
40994;BME280;26722;43.212;27.932;2023-05-12T00:29:58;55116.09;;;-146.72;79.69
40994;BME280;26722;43.212;27.932;2023-05-12T00:32:25;55141.44;;;-146.72;79.61
40994;BME280;26722;43.212;27.932;2023-05-12T00:34:51;55109.75;;;-146.72;79.76
40994;BME280;26722;43.212;27.932;2023-05-12T00:37:18;55128.75;;;-146.72;79.42
40994;BME280;26722;43.212;27.932;2023-05-12T00:39:43;55118.19;;;-146.72;79.10
40994;BME280;26722;43.212;27.932;2023-05-12T00:42:08;55120.31;;;-146.72;79.12
40994;BME280;26722;43.212;27.932;2023-05-12T00:44:35;55103.44;;;-146.72;79.46
40994;BME280;26722;43.212;27.932;2023-05-12T00:47:01;55130.88;;;-146.72;79.46
40994;BME280;26722;43.212;27.932;2023-05-12T00:49:27;55122.44;;;-146.72;79.33
40994;BME280;26722;43.212;27.932;2023-05-12T00:51:53;55132.97;;;-146.72;79.11
40994;BME280;26722;43.212;27.932;2023-05-12T00:54:18;55141.44;;;-146.72;79.10
40994;BME280;26722;43.212;27.932;2023-05-12T00:56:44;55132.97;;;-146.72;79.23
40994;BME280;26722;43.212;27.932;2023-05-12T00:59:09;55111.88;;;-146.72;79.04
40994;BME280;26722;43.212;27.932;2023-05-12T01:01:35;55124.53;;;-146.72;78.91
40994;BME280;26722;43.212;27.932;2023-05-12T01:04:00;55147.75;;;-146.72;78.81
40994;BME280;26722;43.212;27.932;2023-05-12T01:09:10;55124.53;;;-146.72;78.68
40994;BME280;26722;43.212;27.932;2023-05-12T01:11:36;55147.75;;;-146.72;78.62
40994;BME280;26722;43.212;27.932;2023-05-12T01:14:02;55111.88;;;-146.72;78.70
40994;BME280;26722;43.212;27.932;2023-05-12T01:16:28;55128.75;;;-146.72;78.49
40994;BME280;26722;43.212;27.932;2023-05-12T01:18:55;55107.66;;;-146.72;78.27
40994;BME280;26722;43.212;27.932;2023-05-12T01:21:20;55137.22;;;-146.72;78.62
40994;BME280;26722;43.212;27.932;2023-05-12T01:23:48;55124.53;;;-146.72;78.66
40994;BME280;26722;43.212;27.932;2023-05-12T01:26:15;55107.66;;;-146.72;78.67
40994;BME280;26722;43.212;27.932;2023-05-12T01:28:41;55128.75;;;-146.72;79.04
40994;BME280;26722;43.212;27.932;2023-05-12T01:31:06;55141.44;;;-146.72;79.19
40994;BME280;26722;43.212;27.932;2023-05-12T01:33:32;55111.88;;;-146.72;79.17
40994;BME280;26722;43.212;27.932;2023-05-12T01:35:58;55128.75;;;-146.72;79.38
40994;BME280;26722;43.212;27.932;2023-05-12T01:38:23;55135.09;;;-146.72;79.17
40994;BME280;26722;43.212;27.932;2023-05-12T01:40:48;55124.53;;;-146.72;79.11
40994;BME280;26722;43.212;27.932;2023-05-12T01:43:14;55135.09;;;-146.72;79.24
40994;BME280;26722;43.212;27.932;2023-05-12T01:45:39;55149.88;;;-146.72;79.32
40994;BME280;26722;43.212;27.932;2023-05-12T01:48:04;55116.09;;;-146.72;79.49
40994;BME280;26722;43.212;27.932;2023-05-12T01:50:30;55137.22;;;-146.72;79.59
40994;BME280;26722;43.212;27.932;2023-05-12T01:52:55;55128.75;;;-146.72;79.45
40994;BME280;26722;43.212;27.932;2023-05-12T01:55:20;55120.31;;;-146.72;79.58
40994;BME280;26722;43.212;27.932;2023-05-12T01:57:45;55122.44;;;-146.72;79.54
40994;BME280;26722;43.212;27.932;2023-05-12T02:00:11;55118.19;;;-146.72;79.45
40994;BME280;26722;43.212;27.932;2023-05-12T02:02:36;55132.97;;;-146.72;79.54
40994;BME280;26722;43.212;27.932;2023-05-12T02:05:02;55141.44;;;-146.72;79.70
40994;BME280;26722;43.212;27.932;2023-05-12T02:07:27;55116.09;;;-146.72;79.66
40994;BME280;26722;43.212;27.932;2023-05-12T02:09:52;55118.19;;;-146.72;79.68
40994;BME280;26722;43.212;27.932;2023-05-12T02:12:18;55141.44;;;-146.72;79.87
40994;BME280;26722;43.212;27.932;2023-05-12T02:14:43;55128.75;;;-146.72;79.96
40994;BME280;26722;43.212;27.932;2023-05-12T02:17:08;55128.75;;;-146.72;80.18
40994;BME280;26722;43.212;27.932;2023-05-12T02:19:33;55124.53;;;-146.72;80.01
40994;BME280;26722;43.212;27.932;2023-05-12T02:21:59;55132.97;;;-146.72;80.10
40994;BME280;26722;43.212;27.932;2023-05-12T02:24:24;55124.53;;;-146.72;80.23
40994;BME280;26722;43.212;27.932;2023-05-12T02:26:50;55132.97;;;-146.72;80.23
40994;BME280;26722;43.212;27.932;2023-05-12T02:29:15;55128.75;;;-146.72;80.25
40994;BME280;26722;43.212;27.932;2023-05-12T02:31:40;55113.97;;;-146.72;80.06
40994;BME280;26722;43.212;27.932;2023-05-12T02:34:06;55139.31;;;-146.72;79.86
40994;BME280;26722;43.212;27.932;2023-05-12T02:36:31;55124.53;;;-146.72;79.70
40994;BME280;26722;43.212;27.932;2023-05-12T02:38:56;55132.97;;;-146.72;79.70
40994;BME280;26722;43.212;27.932;2023-05-12T02:41:22;55128.75;;;-146.72;79.51
40994;BME280;26722;43.212;27.932;2023-05-12T02:43:47;55141.44;;;-146.72;79.36
40994;BME280;26722;43.212;27.932;2023-05-12T02:46:13;55128.75;;;-146.72;79.50
40994;BME280;26722;43.212;27.932;2023-05-12T02:48:38;55113.97;;;-146.72;79.38
40994;BME280;26722;43.212;27.932;2023-05-12T02:51:03;55132.97;;;-146.72;79.49
40994;BME280;26722;43.212;27.932;2023-05-12T02:53:29;55162.53;;;-146.72;78.99
40994;BME280;26722;43.212;27.932;2023-05-12T02:55:54;55141.44;;;-146.72;79.11
40994;BME280;26722;43.212;27.932;2023-05-12T02:58:19;55103.44;;;-146.72;78.84
40994;BME280;26722;43.212;27.932;2023-05-12T03:00:45;55149.88;;;-146.72;78.58
40994;BME280;26722;43.212;27.932;2023-05-12T03:03:10;55122.44;;;-146.72;78.46
40994;BME280;26722;43.212;27.932;2023-05-12T03:05:36;55116.09;;;-146.72;78.41
40994;BME280;26722;43.212;27.932;2023-05-12T03:08:01;55116.09;;;-146.72;78.17
40994;BME280;26722;43.212;27.932;2023-05-12T03:10:27;55124.53;;;-146.72;77.64
40994;BME280;26722;43.212;27.932;2023-05-12T03:12:52;55128.75;;;-146.72;77.37
40994;BME280;26722;43.212;27.932;2023-05-12T03:15:17;55128.75;;;-146.72;77.08
40994;BME280;26722;43.212;27.932;2023-05-12T03:17:43;55128.75;;;-146.72;76.75
40994;BME280;26722;43.212;27.932;2023-05-12T03:20:08;55120.31;;;-146.72;75.98
40994;BME280;26722;43.212;27.932;2023-05-12T03:22:33;55122.44;;;-146.72;76.19
40994;BME280;26722;43.212;27.932;2023-05-12T03:24:59;55113.97;;;-146.72;76.02
40994;BME280;26722;43.212;27.932;2023-05-12T03:27:24;55132.97;;;-146.72;75.48
40994;BME280;26722;43.212;27.932;2023-05-12T03:29:50;55120.31;;;-146.72;75.22
40994;BME280;26722;43.212;27.932;2023-05-12T03:32:15;55132.97;;;-146.72;74.71
40994;BME280;26722;43.212;27.932;2023-05-12T03:34:41;55107.66;;;-146.72;74.44
40994;BME280;26722;43.212;27.932;2023-05-12T03:37:06;55103.44;;;-146.72;73.84
40994;BME280;26722;43.212;27.932;2023-05-12T03:39:31;55120.31;;;-146.72;73.39
40994;BME280;26722;43.212;27.932;2023-05-12T03:41:57;55109.75;;;-146.72;73.01
40994;BME280;26722;43.212;27.932;2023-05-12T03:44:22;55116.09;;;-146.72;72.73
40994;BME280;26722;43.212;27.932;2023-05-12T03:46:47;55101.31;;;-146.72;72.57
40994;BME280;26722;43.212;27.932;2023-05-12T03:49:12;55086.53;;;-146.72;71.50
40994;BME280;26722;43.212;27.932;2023-05-12T03:51:38;55116.09;;;-146.72;71.45
40994;BME280;26722;43.212;27.932;2023-05-12T03:54:03;55116.09;;;-146.72;70.64
40994;BME280;26722;43.212;27.932;2023-05-12T03:56:28;55090.75;;;-146.72;70.39
40994;BME280;26722;43.212;27.932;2023-05-12T03:58:54;55120.31;;;-146.72;69.51
40994;BME280;26722;43.212;27.932;2023-05-12T04:01:19;55090.75;;;-146.72;69.04
40994;BME280;26722;43.212;27.932;2023-05-12T04:03:45;55107.66;;;-146.72;68.54
40994;BME280;26722;43.212;27.932;2023-05-12T04:06:10;55090.75;;;-146.72;68.07
40994;BME280;26722;43.212;27.932;2023-05-12T04:08:36;55084.44;;;-146.72;67.95
40994;BME280;26722;43.212;27.932;2023-05-12T04:11:01;55088.66;;;-146.72;67.67
40994;BME280;26722;43.212;27.932;2023-05-12T04:13:27;55094.97;;;-146.72;67.29
40994;BME280;26722;43.212;27.932;2023-05-12T04:15:56;55086.53;;;-146.72;67.50
40994;BME280;26722;43.212;27.932;2023-05-12T04:18:22;55086.53;;;-146.72;67.35
40994;BME280;26722;43.212;27.932;2023-05-12T04:20:47;55094.97;;;-146.72;67.29
40994;BME280;26722;43.212;27.932;2023-05-12T04:23:13;55099.19;;;-146.72;67.42
40994;BME280;26722;43.212;27.932;2023-05-12T04:25:39;55101.31;;;-146.72;67.42
40994;BME280;26722;43.212;27.932;2023-05-12T04:28:05;55094.97;;;-146.72;67.26
40994;BME280;26722;43.212;27.932;2023-05-12T04:30:31;55103.44;;;-146.72;67.33
40994;BME280;26722;43.212;27.932;2023-05-12T04:32:56;55086.53;;;-146.72;66.72
40994;BME280;26722;43.212;27.932;2023-05-12T04:35:21;55092.88;;;-146.72;66.58
40994;BME280;26722;43.212;27.932;2023-05-12T04:37:47;55069.66;;;-146.72;65.94
40994;BME280;26722;43.212;27.932;2023-05-12T04:40:13;55092.88;;;-146.72;65.57
40994;BME280;26722;43.212;27.932;2023-05-12T04:42:38;55084.44;;;-146.72;64.77
40994;BME280;26722;43.212;27.932;2023-05-12T04:45:03;55082.31;;;-146.72;64.14
40994;BME280;26722;43.212;27.932;2023-05-12T04:47:29;55075.97;;;-146.72;62.49
40994;BME280;26722;43.212;27.932;2023-05-12T04:49:54;55078.09;;;-146.72;61.67
40994;BME280;26722;43.212;27.932;2023-05-12T04:52:20;55073.88;;;-146.72;61.39
40994;BME280;26722;43.212;27.932;2023-05-12T04:54:46;55073.88;;;-146.72;59.96
40994;BME280;26722;43.212;27.932;2023-05-12T04:57:11;55084.44;;;-146.72;59.83
40994;BME280;26722;43.212;27.932;2023-05-12T04:59:36;55061.19;;;-146.72;57.79
40994;BME280;26722;43.212;27.932;2023-05-12T05:02:02;55078.09;;;-146.72;57.05
40994;BME280;26722;43.212;27.932;2023-05-12T05:04:27;55065.41;;;-146.72;57.16
40994;BME280;26722;43.212;27.932;2023-05-12T05:06:52;55067.53;;;-146.72;56.82
40994;BME280;26722;43.212;27.932;2023-05-12T05:09:19;55059.09;;;-146.72;56.02
40994;BME280;26722;43.212;27.932;2023-05-12T05:11:45;55059.09;;;-146.72;55.27
40994;BME280;26722;43.212;27.932;2023-05-12T05:14:10;55073.88;;;-146.72;55.04
40994;BME280;26722;43.212;27.932;2023-05-12T05:16:35;55069.66;;;-146.72;51.99
40994;BME280;26722;43.212;27.932;2023-05-12T05:19:01;55061.19;;;-146.72;52.49
40994;BME280;26722;43.212;27.932;2023-05-12T05:21:26;55052.75;;;-146.72;51.88
40994;BME280;26722;43.212;27.932;2023-05-12T05:23:51;55071.75;;;-146.72;51.11
40994;BME280;26722;43.212;27.932;2023-05-12T05:26:17;55063.31;;;-146.72;51.23
40994;BME280;26722;43.212;27.932;2023-05-12T05:28:42;55061.19;;;-146.72;51.23
40994;BME280;26722;43.212;27.932;2023-05-12T05:31:11;55065.41;;;-146.72;50.53
40994;BME280;26722;43.212;27.932;2023-05-12T05:33:38;55065.41;;;-146.72;50.93
40994;BME280;26722;43.212;27.932;2023-05-12T05:36:04;55082.31;;;-146.72;50.14
40994;BME280;26722;43.212;27.932;2023-05-12T05:38:30;55059.09;;;-146.72;50.27
40994;BME280;26722;43.212;27.932;2023-05-12T05:40:55;55056.97;;;-146.72;49.31
40994;BME280;26722;43.212;27.932;2023-05-12T05:43:20;55044.31;;;-146.72;48.89
40994;BME280;26722;43.212;27.932;2023-05-12T05:45:46;55065.41;;;-146.72;48.87
40994;BME280;26722;43.212;27.932;2023-05-12T05:48:13;55078.09;;;-146.72;49.81
40994;BME280;26722;43.212;27.932;2023-05-12T05:50:38;55048.53;;;-146.72;48.28
40994;BME280;26722;43.212;27.932;2023-05-12T05:53:04;55048.53;;;-146.72;47.72
40994;BME280;26722;43.212;27.932;2023-05-12T05:55:30;55048.53;;;-146.72;48.85
40994;BME280;26722;43.212;27.932;2023-05-12T05:57:55;55063.31;;;-146.72;48.73
40994;BME280;26722;43.212;27.932;2023-05-12T06:00:20;55040.09;;;-146.72;48.53
40994;BME280;26722;43.212;27.932;2023-05-12T06:02:46;55048.53;;;-146.72;47.82
40994;BME280;26722;43.212;27.932;2023-05-12T06:05:11;55042.19;;;-146.72;48.15
40994;BME280;26722;43.212;27.932;2023-05-12T06:07:37;55046.41;;;-146.72;48.67
40994;BME280;26722;43.212;27.932;2023-05-12T06:10:02;55035.88;;;-146.72;47.57
40994;BME280;26722;43.212;27.932;2023-05-12T06:12:29;55054.88;;;-146.72;45.96
40994;BME280;26722;43.212;27.932;2023-05-12T06:14:54;55037.97;;;-146.72;47.26
40994;BME280;26722;43.212;27.932;2023-05-12T06:17:19;55042.19;;;-146.72;48.05
40994;BME280;26722;43.212;27.932;2023-05-12T06:19:45;55059.09;;;-146.72;47.32
40994;BME280;26722;43.212;27.932;2023-05-12T06:22:12;55052.75;;;-146.72;48.54
40994;BME280;26722;43.212;27.932;2023-05-12T06:24:37;55059.09;;;-146.72;46.13
40994;BME280;26722;43.212;27.932;2023-05-12T06:27:02;55044.31;;;-146.72;48.66
40994;BME280;26722;43.212;27.932;2023-05-12T06:29:28;55050.66;;;-146.72;48.77
40994;BME280;26722;43.212;27.932;2023-05-12T06:31:53;55035.88;;;-146.72;48.97
40994;BME280;26722;43.212;27.932;2023-05-12T06:34:18;55040.09;;;-146.72;48.06
40994;BME280;26722;43.212;27.932;2023-05-12T06:36:43;55044.31;;;-146.72;48.42
40994;BME280;26722;43.212;27.932;2023-05-12T06:39:09;55035.88;;;-146.72;45.54
40994;BME280;26722;43.212;27.932;2023-05-12T06:41:34;55046.41;;;-146.72;47.51
40994;BME280;26722;43.212;27.932;2023-05-12T06:43:59;55056.97;;;-146.72;47.53
40994;BME280;26722;43.212;27.932;2023-05-12T06:46:26;55029.53;;;-146.72;46.15
40994;BME280;26722;43.212;27.932;2023-05-12T06:48:51;55042.19;;;-146.72;48.17
40994;BME280;26722;43.212;27.932;2023-05-12T06:51:19;55044.31;;;-146.72;48.06
40994;BME280;26722;43.212;27.932;2023-05-12T06:53:44;55035.88;;;-146.72;47.48
40994;BME280;26722;43.212;27.932;2023-05-12T06:56:09;55027.41;;;-146.72;47.21
40994;BME280;26722;43.212;27.932;2023-05-12T06:58:35;55018.97;;;-146.72;47.09
40994;BME280;26722;43.212;27.932;2023-05-12T07:01:01;55027.41;;;-146.72;46.54
40994;BME280;26722;43.212;27.932;2023-05-12T07:03:26;55027.41;;;-146.72;46.68
40994;BME280;26722;43.212;27.932;2023-05-12T07:05:51;55040.09;;;-146.72;45.60
40994;BME280;26722;43.212;27.932;2023-05-12T07:08:17;55023.19;;;-146.72;46.08
40994;BME280;26722;43.212;27.932;2023-05-12T07:10:42;55027.41;;;-146.72;47.42
40994;BME280;26722;43.212;27.932;2023-05-12T07:13:07;55016.88;;;-146.72;46.91
40994;BME280;26722;43.212;27.932;2023-05-12T07:15:33;55004.19;;;-146.72;47.03
40994;BME280;26722;43.212;27.932;2023-05-12T07:17:58;55002.09;;;-146.72;45.10
40994;BME280;26722;43.212;27.932;2023-05-12T07:20:23;55021.09;;;-146.72;42.66
40994;BME280;26722;43.212;27.932;2023-05-12T07:22:49;55010.53;;;-146.72;44.58
40994;BME280;26722;43.212;27.932;2023-05-12T07:25:16;55025.31;;;-146.72;44.37
40994;BME280;26722;43.212;27.932;2023-05-12T07:27:41;55012.63;;;-146.72;44.39
40994;BME280;26722;43.212;27.932;2023-05-12T07:30:07;55031.66;;;-146.72;44.00
40994;BME280;26722;43.212;27.932;2023-05-12T07:32:32;55044.31;;;-146.72;43.41
40994;BME280;26722;43.212;27.932;2023-05-12T07:34:57;55029.53;;;-146.72;45.31
40994;BME280;26722;43.212;27.932;2023-05-12T07:37:23;55018.97;;;-146.72;43.87
40994;BME280;26722;43.212;27.932;2023-05-12T07:39:48;55050.66;;;-146.72;43.89
40994;BME280;26722;43.212;27.932;2023-05-12T07:42:13;55027.41;;;-146.72;43.34
40994;BME280;26722;43.212;27.932;2023-05-12T07:44:39;55025.31;;;-146.72;42.71
40994;BME280;26722;43.212;27.932;2023-05-12T07:47:04;55023.19;;;-146.72;42.69
40994;BME280;26722;43.212;27.932;2023-05-12T07:49:29;55016.88;;;-146.72;43.87
40994;BME280;26722;43.212;27.932;2023-05-12T07:51:55;55021.09;;;-146.72;43.31
40994;BME280;26722;43.212;27.932;2023-05-12T07:54:20;55006.31;;;-146.72;42.01
40994;BME280;26722;43.212;27.932;2023-05-12T07:56:46;55010.53;;;-146.72;41.93
40994;BME280;26722;43.212;27.932;2023-05-12T07:59:11;55016.88;;;-146.72;41.20
40994;BME280;26722;43.212;27.932;2023-05-12T08:01:38;55014.75;;;-146.72;40.98
40994;BME280;26722;43.212;27.932;2023-05-12T08:04:03;55010.53;;;-146.72;42.08
40994;BME280;26722;43.212;27.932;2023-05-12T08:06:29;54997.88;;;-146.72;42.26
40994;BME280;26722;43.212;27.932;2023-05-12T08:08:55;54997.88;;;-146.72;41.26
40994;BME280;26722;43.212;27.932;2023-05-12T08:11:22;54983.09;;;-146.72;41.23
40994;BME280;26722;43.212;27.932;2023-05-12T08:13:47;54997.88;;;-146.72;40.36
40994;BME280;26722;43.212;27.932;2023-05-12T08:16:13;54985.19;;;-146.72;40.27
40994;BME280;26722;43.212;27.932;2023-05-12T08:18:38;54974.63;;;-146.72;39.56
40994;BME280;26722;43.212;27.932;2023-05-12T08:21:03;54983.09;;;-146.72;39.31
40994;BME280;26722;43.212;27.932;2023-05-12T08:23:29;54972.53;;;-146.72;40.56
40994;BME280;26722;43.212;27.932;2023-05-12T08:25:54;54972.53;;;-146.72;39.08
40994;BME280;26722;43.212;27.932;2023-05-12T08:28:19;54987.31;;;-146.72;41.38
40994;BME280;26722;43.212;27.932;2023-05-12T08:30:45;54980.97;;;-146.72;43.25
40994;BME280;26722;43.212;27.932;2023-05-12T08:33:10;54970.41;;;-146.72;46.94
40994;BME280;26722;43.212;27.932;2023-05-12T08:35:36;54985.19;;;-146.72;50.11
40994;BME280;26722;43.212;27.932;2023-05-12T08:38:01;54972.53;;;-146.72;50.16
40994;BME280;26722;43.212;27.932;2023-05-12T08:40:28;54980.97;;;-146.72;50.82
40994;BME280;26722;43.212;27.932;2023-05-12T08:45:22;54968.31;;;-146.72;52.05
40994;BME280;26722;43.212;27.932;2023-05-12T08:47:48;54976.75;;;-146.72;51.85
40994;BME280;26722;43.212;27.932;2023-05-12T08:50:14;54995.75;;;-146.72;52.11
40994;BME280;26722;43.212;27.932;2023-05-12T08:52:41;54999.97;;;-146.72;52.33
40994;BME280;26722;43.212;27.932;2023-05-12T08:55:06;54993.63;;;-146.72;52.85
40994;BME280;26722;43.212;27.932;2023-05-12T08:57:33;55004.19;;;-146.72;51.89
40994;BME280;26722;43.212;27.932;2023-05-12T08:59:58;54985.19;;;-146.72;51.73
40994;BME280;26722;43.212;27.932;2023-05-12T09:02:26;54993.63;;;-146.72;52.11
40994;BME280;26722;43.212;27.932;2023-05-12T09:04:52;55002.09;;;-146.72;51.55
40994;BME280;26722;43.212;27.932;2023-05-12T09:07:19;54993.63;;;-146.72;52.22
40994;BME280;26722;43.212;27.932;2023-05-12T09:09:46;55002.09;;;-146.72;51.77
40994;BME280;26722;43.212;27.932;2023-05-12T09:12:14;55004.19;;;-146.72;51.75
40994;BME280;26722;43.212;27.932;2023-05-12T09:14:41;54985.19;;;-146.72;51.36
40994;BME280;26722;43.212;27.932;2023-05-12T09:17:08;54980.97;;;-146.72;50.78
40994;BME280;26722;43.212;27.932;2023-05-12T09:19:33;54989.41;;;-146.72;52.52
40994;BME280;26722;43.212;27.932;2023-05-12T09:21:59;54987.31;;;-146.72;52.20
40994;BME280;26722;43.212;27.932;2023-05-12T09:24:37;54968.31;;;-146.72;51.58
40994;BME280;26722;43.212;27.932;2023-05-12T09:27:02;54976.75;;;-146.72;52.37
40994;BME280;26722;43.212;27.932;2023-05-12T09:29:28;54999.97;;;-146.72;51.07
40994;BME280;26722;43.212;27.932;2023-05-12T09:31:54;54989.41;;;-146.72;52.03
40994;BME280;26722;43.212;27.932;2023-05-12T09:34:29;54993.63;;;-146.72;50.39
40994;BME280;26722;43.212;27.932;2023-05-12T09:36:59;55002.09;;;-146.72;51.92
40994;BME280;26722;43.212;27.932;2023-05-12T09:39:25;54991.53;;;-146.72;51.84
40994;BME280;26722;43.212;27.932;2023-05-12T09:41:50;54995.75;;;-146.72;51.36
40994;BME280;26722;43.212;27.932;2023-05-12T09:44:19;54999.97;;;-146.72;51.33
40994;BME280;26722;43.212;27.932;2023-05-12T09:46:45;54997.88;;;-146.72;51.78
40994;BME280;26722;43.212;27.932;2023-05-12T09:49:11;54991.53;;;-146.72;53.03
40994;BME280;26722;43.212;27.932;2023-05-12T09:51:38;55010.53;;;-146.72;52.30
40994;BME280;26722;43.212;27.932;2023-05-12T09:54:03;54987.31;;;-146.72;53.84
40994;BME280;26722;43.212;27.932;2023-05-12T09:56:29;55021.09;;;-146.72;52.63
40994;BME280;26722;43.212;27.932;2023-05-12T09:58:56;54997.88;;;-146.72;52.67
40994;BME280;26722;43.212;27.932;2023-05-12T10:01:22;54993.63;;;-146.72;53.54
40994;BME280;26722;43.212;27.932;2023-05-12T10:03:50;54997.88;;;-146.72;52.32
40994;BME280;26722;43.212;27.932;2023-05-12T10:06:19;55002.09;;;-146.72;53.54
40994;BME280;26722;43.212;27.932;2023-05-12T10:11:10;54997.88;;;-146.72;51.89
40994;BME280;26722;43.212;27.932;2023-05-12T10:13:36;55002.09;;;-146.72;51.60
40994;BME280;26722;43.212;27.932;2023-05-12T10:16:02;54993.63;;;-146.72;51.43
40994;BME280;26722;43.212;27.932;2023-05-12T10:18:27;54991.53;;;-146.72;50.59
40994;BME280;26722;43.212;27.932;2023-05-12T10:20:53;54993.63;;;-146.72;50.40
40994;BME280;26722;43.212;27.932;2023-05-12T10:23:20;54987.31;;;-146.72;49.47
40994;BME280;26722;43.212;27.932;2023-05-12T10:25:46;54995.75;;;-146.72;47.90
40994;BME280;26722;43.212;27.932;2023-05-12T10:28:12;54978.88;;;-146.72;47.13
40994;BME280;26722;43.212;27.932;2023-05-12T10:30:37;54995.75;;;-146.72;48.17
40994;BME280;26722;43.212;27.932;2023-05-12T10:33:03;54997.88;;;-146.72;48.02
40994;BME280;26722;43.212;27.932;2023-05-12T10:35:33;54993.63;;;-146.72;48.33
40994;BME280;26722;43.212;27.932;2023-05-12T10:38:05;54985.19;;;-146.72;45.95
40994;BME280;26722;43.212;27.932;2023-05-12T10:40:31;54985.19;;;-146.72;48.43
40994;BME280;26722;43.212;27.932;2023-05-12T10:42:57;54970.41;;;-146.72;47.79
40994;BME280;26722;43.212;27.932;2023-05-12T10:45:23;54989.41;;;-146.72;46.16
40994;BME280;26722;43.212;27.932;2023-05-12T10:47:49;54989.41;;;-146.72;42.92
40994;BME280;26722;43.212;27.932;2023-05-12T10:50:14;54970.41;;;-146.72;43.64
40994;BME280;26722;43.212;27.932;2023-05-12T10:52:53;54972.53;;;-146.72;40.70
40994;BME280;26722;43.212;27.932;2023-05-12T10:55:29;54980.97;;;-146.72;40.67
40994;BME280;26722;43.212;27.932;2023-05-12T10:58:02;54974.63;;;-146.72;41.63
40994;BME280;26722;43.212;27.932;2023-05-12T11:00:27;54980.97;;;-146.72;42.56
40994;BME280;26722;43.212;27.932;2023-05-12T11:02:53;54991.53;;;-146.72;40.62
40994;BME280;26722;43.212;27.932;2023-05-12T11:05:19;54970.41;;;-146.72;40.67
40994;BME280;26722;43.212;27.932;2023-05-12T11:07:47;54985.19;;;-146.72;37.62
40994;BME280;26722;43.212;27.932;2023-05-12T11:10:13;54976.75;;;-146.72;39.21
40994;BME280;26722;43.212;27.932;2023-05-12T11:12:41;54991.53;;;-146.72;40.85
40994;BME280;26722;43.212;27.932;2023-05-12T11:15:06;54985.19;;;-146.72;39.81
40994;BME280;26722;43.212;27.932;2023-05-12T11:17:32;54997.88;;;-146.72;42.06
40994;BME280;26722;43.212;27.932;2023-05-12T11:19:57;54980.97;;;-146.72;43.50
40994;BME280;26722;43.212;27.932;2023-05-12T11:22:22;54989.41;;;-146.72;40.18
40994;BME280;26722;43.212;27.932;2023-05-12T11:24:48;54970.41;;;-146.72;40.43
40994;BME280;26722;43.212;27.932;2023-05-12T11:27:15;54985.19;;;-146.72;39.96
40994;BME280;26722;43.212;27.932;2023-05-12T11:29:41;54985.19;;;-146.72;39.69
40994;BME280;26722;43.212;27.932;2023-05-12T11:32:10;54987.31;;;-146.72;39.42
40994;BME280;26722;43.212;27.932;2023-05-12T11:34:38;54993.63;;;-146.72;39.92
40994;BME280;26722;43.212;27.932;2023-05-12T11:37:04;54985.19;;;-146.72;38.31
40994;BME280;26722;43.212;27.932;2023-05-12T11:39:30;54980.97;;;-146.72;40.29
40994;BME280;26722;43.212;27.932;2023-05-12T11:42:05;54974.63;;;-146.72;40.25
40994;BME280;26722;43.212;27.932;2023-05-12T11:44:33;54964.09;;;-146.72;40.02
40994;BME280;26722;43.212;27.932;2023-05-12T11:47:02;54972.53;;;-146.72;40.52
40994;BME280;26722;43.212;27.932;2023-05-12T11:49:44;54980.97;;;-146.72;40.21
40994;BME280;26722;43.212;27.932;2023-05-12T11:52:09;54976.75;;;-146.72;40.45
40994;BME280;26722;43.212;27.932;2023-05-12T11:54:35;54976.75;;;-146.72;39.57
40994;BME280;26722;43.212;27.932;2023-05-12T11:57:01;54966.19;;;-146.72;39.83
40994;BME280;26722;43.212;27.932;2023-05-12T11:59:29;54976.75;;;-146.72;39.83
40994;BME280;26722;43.212;27.932;2023-05-12T12:01:54;54980.97;;;-146.72;37.69
40994;BME280;26722;43.212;27.932;2023-05-12T12:04:41;54968.31;;;-146.72;37.46
40994;BME280;26722;43.212;27.932;2023-05-12T12:07:08;54959.88;;;-146.72;37.35
40994;BME280;26722;43.212;27.932;2023-05-12T12:09:35;54980.97;;;-146.72;36.97
40994;BME280;26722;43.212;27.932;2023-05-12T12:12:02;54964.09;;;-146.72;37.39
40994;BME280;26722;43.212;27.932;2023-05-12T12:14:27;54980.97;;;-146.72;36.02
40994;BME280;26722;43.212;27.932;2023-05-12T12:16:54;54966.19;;;-146.72;37.71
40994;BME280;26722;43.212;27.932;2023-05-12T12:19:19;54989.41;;;-146.72;37.94
40994;BME280;26722;43.212;27.932;2023-05-12T12:21:44;54987.31;;;-146.72;38.71
40994;BME280;26722;43.212;27.932;2023-05-12T12:24:09;54989.41;;;-146.72;38.72
40994;BME280;26722;43.212;27.932;2023-05-12T12:26:35;54985.19;;;-146.72;37.69
40994;BME280;26722;43.212;27.932;2023-05-12T12:29:00;54980.97;;;-146.72;38.28
40994;BME280;26722;43.212;27.932;2023-05-12T12:31:25;54985.19;;;-146.72;37.12